Aeroporto :
LOGIN :

Iscrizione | Disclaimer

   EN    FR    IT 

 










Sommario :    VFR   VFR Marginale   IFR   IFR Intensivo   IFR Molto Intensivo
Visibilità : 
Base nubi : 
>= 8 km
>= 3000ft
5 / 8 km
1000 / 3000 ft
1500m / 5 km
500 / 1000 ft
800 / 1500m
200 / 500 ft
< 800m
< 200 ft
Simboli :   Temporali  Nebbia  Neve Forte  Precipitazioni Forti  Vento > 20 kt
SIGMETs :   Varie  Temporali  Ghiacco  Turbolenza  Onda orograficha  Ceneri Vulcaniche






- Altitudine del aeroporto : 424 ft
- Codice IATA : QGY


LHPR - Györ Per

ULTIMO METAR :
  • 302245Z AUTO 11005KT 6000 NCD M05/M05 Q1025

METARs OBSOLETI :
  • 302215Z AUTO 11005KT 7000 NCD M05/M05 Q1025
  • 302145Z AUTO 12006KT 080V140 7000 NCD M04/M05 Q1026
  • 302115Z AUTO 12005KT 7000 NCD M04/M05 Q1026
  • 302045Z AUTO 13006KT 7000 NCD M04/M05 Q1026
  • 302015Z AUTO 12005KT 8000 NCD M04/M05 Q1026

TAF TAF LHPR
Valido dal 30 a 18 ore il 01 a 03 ore UTC


301715Z 3018/0103 14006KT 8000 NSC
PROB40
TEMPO 3018/0103 5000 BR
BECMG 3019/3022 BKN025
BECMG 0100/0103 BKN015



MetMap, La meteo Aeronautica in un colpo d'occhio ! - Copyright ORBIFLY Dicembre 2007 - Disclaimer

ORBIFLY MET'MAP TEAM :

Programmazione e sviluppo : Alexandra Zaïnal
Concezione : Baudouin d'Aumeries
Aiuto per la programmazione : Marc-Olivier Méhu
Supporto tecnico e logistico : Manuel Goepfert
Aiuto per la traduzione : Arnaldo La Scala

Contatto : metmap@orbifly.com




FONTI E CREDITI :

   NOAA